Terminal Aerodrome Forecast
Issued by NWS Hastings, NE

Home | Current Version | Previous Version | Text Only | Print | Product List | Glossary On
Versions: 1 2 3 4 5 6 7 8 9 10 11 12 13 14 15 16 17 18 19 20 21 22 23 24 25 26 27 28 29 30 31 32 33 34 35 36 37 38 39 40 41 42 43 44 45 46 47 48 49 50
000
FTUS43 KGID 062158 AAB
TAFGRI
TAF AMD
KGRI 062158Z 0622/0718 16013G23KT 3SM TSRA SCT025 BKN035CB
      TEMPO 0622/0623 1 1/2SM +TSRA
     FM062300 16020G28KT P6SM VCTS OVC025CB
     FM070300 18012KT P6SM SCT035 BKN130
     FM071300 27010KT P6SM BKN080=

USA.gov is the U.S. government's official web portal to all federal, state and local government web resources and services.